createdAt,value
2022-07-30T00:09:00.836Z,16
2022-07-30T00:13:54.077Z,15.9
2022-07-30T00:16:19.220Z,15.9
2022-07-30T00:18:45.828Z,15.9
2022-07-30T00:23:39.080Z,15.9
2022-07-30T00:26:05.713Z,15.9
2022-07-30T00:28:32.333Z,15.9
2022-07-30T00:30:58.959Z,16
2022-07-30T00:38:18.806Z,16.1
2022-07-30T00:43:12.048Z,16
2022-07-30T00:45:38.694Z,16
2022-07-30T00:48:05.309Z,16
2022-07-30T00:52:57.059Z,15.9
2022-07-30T01:02:43.551Z,15.9
2022-07-30T01:07:35.310Z,15.9
2022-07-30T01:12:27.063Z,16.1
2022-07-30T01:17:18.806Z,16.1
2022-07-30T01:24:38.674Z,16.1
2022-07-30T01:27:05.326Z,16.1
2022-07-30T01:31:58.558Z,16.1
2022-07-30T01:36:50.308Z,16.1
2022-07-30T01:39:15.430Z,16.1
2022-07-30T01:41:42.054Z,16.1
2022-07-30T01:44:08.690Z,16.1
2022-07-30T01:46:35.303Z,16
2022-07-30T01:51:28.559Z,16.1
2022-07-30T01:53:55.178Z,16.1
2022-07-30T01:56:21.801Z,16.1
2022-07-30T01:58:48.427Z,16.1
2022-07-30T02:01:15.051Z,16.2
2022-07-30T02:06:08.289Z,16.4
2022-07-30T02:08:34.922Z,16.4
2022-07-30T02:11:01.540Z,16.5
2022-07-30T02:15:54.779Z,16.4
2022-07-30T02:20:46.548Z,16.5
2022-07-30T02:23:13.160Z,16.5
2022-07-30T02:25:39.777Z,16.4
2022-07-30T02:30:33.021Z,16.4
2022-07-30T02:35:26.279Z,16.2
2022-07-30T02:40:19.505Z,16.1
2022-07-30T02:42:46.149Z,16.1
2022-07-30T02:45:12.765Z,16.2
2022-07-30T02:50:06.005Z,16.1
2022-07-30T02:52:31.124Z,16.1
2022-07-30T02:54:57.752Z,16
2022-07-30T02:59:51.009Z,16
2022-07-30T03:04:43.318Z,16
2022-07-30T03:09:36.545Z,15.8
2022-07-30T03:14:29.795Z,15.9
2022-07-30T03:19:23.045Z,15.8
2022-07-30T03:21:49.669Z,15.8
2022-07-30T03:24:16.303Z,15.8
2022-07-30T03:26:42.917Z,15.7
2022-07-30T03:29:09.533Z,15.7
2022-07-30T03:34:01.277Z,15.6
2022-07-30T03:38:54.527Z,15.5
2022-07-30T03:41:21.158Z,15.4
2022-07-30T03:43:47.767Z,15.3
2022-07-30T03:53:34.259Z,14.8
2022-07-30T03:58:27.505Z,14.7
2022-07-30T04:03:20.756Z,14.6
2022-07-30T04:08:12.497Z,14.6
2022-07-30T04:17:58.977Z,14.6
2022-07-30T04:22:52.228Z,14.6
2022-07-30T04:27:45.474Z,14.6
2022-07-30T04:32:38.728Z,14.6
2022-07-30T04:37:32.007Z,14.7
2022-07-30T04:42:23.731Z,14.8
2022-07-30T04:47:16.953Z,14.9
2022-07-30T04:52:10.206Z,14.9
2022-07-30T04:57:03.456Z,14.9
2022-07-30T05:01:56.709Z,15
2022-07-30T05:06:49.955Z,15.2
2022-07-30T05:09:16.573Z,15.2
2022-07-30T05:11:43.189Z,15.3
2022-07-30T05:14:08.318Z,15.4
2022-07-30T05:16:34.932Z,15.5
2022-07-30T05:19:01.565Z,15.5
2022-07-30T05:21:28.176Z,15.6
2022-07-30T05:23:54.801Z,15.7
2022-07-30T05:26:21.445Z,15.8
2022-07-30T05:28:48.052Z,15.9
2022-07-30T05:31:14.680Z,16
2022-07-30T05:33:41.297Z,16.1
2022-07-30T05:36:07.913Z,16.2
2022-07-30T05:41:01.166Z,16.3
2022-07-30T05:45:54.400Z,16.5
2022-07-30T05:48:21.030Z,16.6
2022-07-30T05:50:47.659Z,16.7
2022-07-30T05:55:40.890Z,16.8
2022-07-30T05:58:06.019Z,16.9
2022-07-30T06:00:32.637Z,17
2022-07-30T06:02:59.267Z,17.1
2022-07-30T06:05:25.881Z,17.2
2022-07-30T06:07:52.518Z,17.3
2022-07-30T06:10:19.131Z,17.3
2022-07-30T06:12:45.762Z,17.5
2022-07-30T06:15:12.385Z,17.6
2022-07-30T06:20:05.637Z,17.7
2022-07-30T06:22:32.254Z,17.8
2022-07-30T06:24:58.862Z,17.9
2022-07-30T06:29:52.103Z,18.4
2022-07-30T06:34:43.859Z,18.8
2022-07-30T06:39:37.106Z,19.2
2022-07-30T06:44:30.352Z,19.6
2022-07-30T06:49:23.599Z,20
2022-07-30T06:51:50.234Z,20.2
2022-07-30T06:54:16.845Z,20.4
2022-07-30T06:59:10.101Z,20.7
2022-07-30T07:06:29.943Z,21.1
2022-07-30T07:08:56.572Z,21.3
2022-07-30T07:11:23.193Z,21.6
2022-07-30T07:13:49.829Z,22.6
2022-07-30T07:16:14.956Z,24.6
2022-07-30T07:18:41.572Z,26.3
2022-07-30T07:23:34.819Z,28.2
2022-07-30T07:26:01.455Z,29.1
2022-07-30T07:28:28.074Z,29.4
2022-07-30T07:30:54.688Z,30.1
2022-07-30T07:33:21.310Z,30.9
2022-07-30T07:35:47.941Z,31
2022-07-30T07:38:14.552Z,31.8
2022-07-30T07:40:41.180Z,32.5
2022-07-30T07:43:07.809Z,32.7
2022-07-30T07:45:34.424Z,32.9
2022-07-30T07:47:59.552Z,32.7
2022-07-30T07:50:26.175Z,33
2022-07-30T07:52:52.801Z,33.7
2022-07-30T07:55:19.420Z,33.5
2022-07-30T07:57:46.050Z,34.1
2022-07-30T08:00:11.182Z,34.5
2022-07-30T08:02:36.297Z,34.1
2022-07-30T08:05:02.919Z,33
2022-07-30T08:07:29.558Z,32.7
2022-07-30T08:12:22.787Z,33.7
2022-07-30T08:14:49.423Z,34.1
2022-07-30T08:17:16.035Z,32.7
2022-07-30T08:19:42.660Z,33.1
2022-07-30T08:22:09.303Z,33.3
2022-07-30T08:24:35.909Z,34.5
2022-07-30T08:27:02.522Z,34.3
2022-07-30T08:31:55.787Z,35
2022-07-30T08:34:20.899Z,34.9
2022-07-30T08:36:46.032Z,33.6
2022-07-30T08:39:12.665Z,32.8
2022-07-30T08:41:39.283Z,33.3
2022-07-30T08:44:05.914Z,33.5
2022-07-30T08:46:32.536Z,34
2022-07-30T08:51:25.776Z,33.4
2022-07-30T08:53:52.403Z,34.1
2022-07-30T08:56:19.021Z,34.9
2022-07-30T08:58:45.641Z,35
2022-07-30T09:01:12.260Z,35.3
2022-07-30T09:03:38.905Z,35.8
2022-07-30T09:06:05.507Z,35.4
2022-07-30T09:08:30.631Z,33.2
2022-07-30T09:10:57.254Z,30.9
2022-07-30T09:13:23.878Z,31.6
2022-07-30T09:15:50.499Z,32.8
2022-07-30T09:18:17.142Z,32.3
2022-07-30T09:20:43.759Z,33.3
2022-07-30T09:23:10.375Z,32.1
2022-07-30T09:28:03.635Z,31.5
2022-07-30T09:30:30.233Z,29.9
2022-07-30T09:32:56.859Z,30.7
2022-07-30T09:35:23.485Z,31.5
2022-07-30T09:37:50.105Z,32.3
2022-07-30T09:40:15.237Z,31
2022-07-30T09:42:40.388Z,31.6
2022-07-30T09:45:06.998Z,33.5
2022-07-30T09:47:32.123Z,33.6
2022-07-30T09:49:58.766Z,33.2
2022-07-30T09:52:23.883Z,31.4
2022-07-30T09:54:50.501Z,29.8
2022-07-30T09:57:17.151Z,30
2022-07-30T09:59:43.754Z,31.1
2022-07-30T10:02:10.368Z,31.7
2022-07-30T10:04:36.983Z,30
2022-07-30T10:07:03.640Z,30.2
2022-07-30T10:09:28.749Z,29.5
2022-07-30T10:11:53.876Z,29.2
2022-07-30T10:14:20.502Z,31.3
2022-07-30T10:16:47.150Z,32.5
2022-07-30T10:19:13.757Z,32.6
2022-07-30T10:24:07.003Z,34.8
2022-07-30T10:26:33.615Z,35.3
2022-07-30T10:29:00.225Z,35.3
2022-07-30T10:31:26.859Z,34.9
2022-07-30T10:33:53.493Z,34.4
2022-07-30T10:36:20.109Z,33.2
2022-07-30T10:38:46.726Z,33.1
2022-07-30T10:41:13.357Z,33.1
2022-07-30T10:43:38.499Z,31.8
2022-07-30T10:46:05.103Z,30.9
2022-07-30T10:48:31.719Z,30.4
2022-07-30T10:50:58.365Z,29.9
2022-07-30T10:53:24.967Z,30.3
2022-07-30T10:55:51.590Z,30.7
2022-07-30T10:58:18.216Z,30.8
2022-07-30T11:00:44.838Z,30.6
2022-07-30T11:03:11.454Z,29.4
2022-07-30T11:05:38.082Z,29
2022-07-30T11:08:04.712Z,29
2022-07-30T11:10:31.331Z,28.8
2022-07-30T11:12:57.943Z,29.2
2022-07-30T11:15:23.085Z,29.8
2022-07-30T11:17:49.710Z,30.3
2022-07-30T11:20:16.329Z,30.4
2022-07-30T11:22:42.991Z,30
2022-07-30T11:25:09.576Z,29.6
2022-07-30T11:27:36.213Z,29.8
2022-07-30T11:30:02.833Z,30.1
2022-07-30T11:32:29.451Z,29.6
2022-07-30T11:37:22.697Z,30
2022-07-30T11:39:49.322Z,30.4
2022-07-30T11:42:15.939Z,30.5
2022-07-30T11:44:42.567Z,30.7
2022-07-30T11:47:07.718Z,30.8
2022-07-30T11:49:34.310Z,30.7
2022-07-30T11:52:00.931Z,30.8
2022-07-30T11:54:27.564Z,31.2
2022-07-30T11:56:54.187Z,31
2022-07-30T11:59:20.815Z,30.3
2022-07-30T12:01:47.433Z,30
2022-07-30T12:04:14.060Z,29.3
2022-07-30T12:06:40.681Z,28.7
2022-07-30T12:09:07.306Z,28.1
2022-07-30T12:11:33.924Z,28.2
2022-07-30T12:14:00.551Z,28.6
2022-07-30T12:16:27.187Z,29.1
2022-07-30T12:18:52.302Z,29.4
2022-07-30T12:21:18.930Z,29.4
2022-07-30T12:23:45.550Z,29.1
2022-07-30T12:26:12.173Z,28.9
2022-07-30T12:28:38.790Z,28.8
2022-07-30T12:31:05.418Z,28.9
2022-07-30T12:33:32.039Z,29.4
2022-07-30T12:35:58.664Z,29.5
2022-07-30T12:38:25.290Z,29.6
2022-07-30T12:40:51.924Z,29.5
2022-07-30T12:43:18.556Z,29.4
2022-07-30T12:45:45.161Z,29.6
2022-07-30T12:48:11.787Z,29.5
2022-07-30T12:50:38.411Z,29.2
2022-07-30T12:55:30.155Z,29.1
2022-07-30T13:00:23.409Z,28.9
2022-07-30T13:02:50.035Z,28.8
2022-07-30T13:05:16.660Z,29
2022-07-30T13:07:43.268Z,28.9
2022-07-30T13:10:09.904Z,28.9
2022-07-30T13:12:36.524Z,29.1
2022-07-30T13:15:03.136Z,29
2022-07-30T13:17:29.776Z,28.9
2022-07-30T13:19:56.382Z,29
2022-07-30T13:22:23.019Z,29
2022-07-30T13:24:49.650Z,29.1
2022-07-30T13:27:14.765Z,29.4
2022-07-30T13:29:41.388Z,30.1
2022-07-30T13:32:08.018Z,30.5
2022-07-30T13:34:34.631Z,30.1
2022-07-30T13:37:01.267Z,29.9
2022-07-30T13:39:27.891Z,30.2
2022-07-30T13:41:54.514Z,30.3
2022-07-30T13:44:21.147Z,30.1
2022-07-30T13:46:47.750Z,29.7
2022-07-30T13:49:14.372Z,29.5
2022-07-30T13:51:41.009Z,29.5
2022-07-30T13:54:07.635Z,29.4
2022-07-30T13:56:34.263Z,29.3
2022-07-30T13:58:59.391Z,29.5
2022-07-30T14:03:52.629Z,29.5
2022-07-30T14:06:19.248Z,29.3
2022-07-30T14:08:45.871Z,29
2022-07-30T14:11:12.499Z,29
2022-07-30T14:13:39.122Z,29
2022-07-30T14:16:05.761Z,29.2
2022-07-30T14:18:32.375Z,29.1
2022-07-30T14:20:58.999Z,28.9
2022-07-30T14:23:25.622Z,28.7
2022-07-30T14:25:52.242Z,28.7
2022-07-30T14:28:18.868Z,28.9
2022-07-30T14:30:44.001Z,29.2
2022-07-30T14:33:10.613Z,29.3
2022-07-30T14:35:37.245Z,29.3
2022-07-30T14:38:03.868Z,29.5
2022-07-30T14:40:30.509Z,29.5
2022-07-30T14:42:57.105Z,29.2
2022-07-30T14:45:23.747Z,29
2022-07-30T14:47:50.357Z,29
2022-07-30T14:50:16.979Z,29
2022-07-30T14:52:43.598Z,29
2022-07-30T14:57:36.840Z,28.9
2022-07-30T15:00:03.494Z,29
2022-07-30T15:02:30.097Z,29.2
2022-07-30T15:04:55.240Z,29.3
2022-07-30T15:07:21.842Z,29.1
2022-07-30T15:09:48.464Z,29.1
2022-07-30T15:12:15.105Z,29.1
2022-07-30T15:14:41.749Z,28.9
2022-07-30T15:17:08.344Z,28.7
2022-07-30T15:19:34.958Z,28.6
2022-07-30T15:22:01.585Z,28.5
2022-07-30T15:24:28.219Z,28.5
2022-07-30T15:26:54.843Z,28.4
2022-07-30T15:29:21.464Z,28.3
2022-07-30T15:31:48.096Z,28.3
2022-07-30T15:34:14.719Z,28.4
2022-07-30T15:36:41.340Z,28.4
2022-07-30T15:39:06.488Z,28.4
2022-07-30T15:41:33.098Z,28.5
2022-07-30T15:43:59.712Z,28.6
2022-07-30T15:46:26.323Z,28.5
2022-07-30T15:48:52.963Z,28.4
2022-07-30T15:51:19.572Z,28.4
2022-07-30T15:53:46.225Z,28.4
2022-07-30T16:01:06.060Z,28.4
2022-07-30T16:03:32.688Z,28.4
2022-07-30T16:05:59.323Z,28.4
2022-07-30T16:08:25.955Z,28.4
2022-07-30T16:10:51.056Z,28.4
2022-07-30T16:13:17.690Z,28.4
2022-07-30T16:15:44.316Z,28.5
2022-07-30T16:18:10.928Z,28.4
2022-07-30T16:20:37.553Z,28.4
2022-07-30T16:23:04.180Z,28.4
2022-07-30T16:25:30.806Z,28.4
2022-07-30T16:27:57.421Z,28.3
2022-07-30T16:30:24.059Z,28.2
2022-07-30T16:32:50.666Z,28.1
2022-07-30T16:35:17.293Z,28.1
2022-07-30T16:37:43.983Z,28.1
2022-07-30T16:40:10.531Z,28.1
2022-07-30T16:42:35.671Z,28.2
2022-07-30T16:45:02.296Z,28.3
2022-07-30T16:47:28.911Z,28.3
2022-07-30T16:49:55.544Z,28.3
2022-07-30T16:52:22.169Z,28.3
2022-07-30T16:54:48.799Z,28.3
2022-07-30T16:57:15.421Z,28.4
2022-07-30T16:59:42.047Z,28.4
2022-07-30T17:02:08.658Z,28.4
2022-07-30T17:04:35.283Z,28.4
2022-07-30T17:07:01.905Z,28.3
2022-07-30T17:09:28.529Z,28.3
2022-07-30T17:11:55.162Z,28.2
2022-07-30T17:14:20.286Z,28.2
2022-07-30T17:16:46.915Z,28.2
2022-07-30T17:19:13.527Z,28.2
2022-07-30T17:21:40.152Z,28.2
2022-07-30T17:24:06.773Z,28.2
2022-07-30T17:26:33.401Z,28.1
2022-07-30T17:29:00.017Z,28.1
2022-07-30T17:31:26.653Z,28
2022-07-30T17:33:53.266Z,27.8
2022-07-30T17:36:19.897Z,27.7
2022-07-30T17:38:46.513Z,27.6
2022-07-30T17:43:39.791Z,27.4
2022-07-30T17:46:04.895Z,27.4
2022-07-30T17:48:31.522Z,27.3
2022-07-30T17:50:58.141Z,27.2
2022-07-30T17:53:24.747Z,27.2
2022-07-30T17:55:51.383Z,27.1
2022-07-30T17:58:17.998Z,27
2022-07-30T18:03:11.253Z,26.8
2022-07-30T18:05:37.904Z,26.7
2022-07-30T18:08:04.493Z,26.5
2022-07-30T18:12:57.748Z,26.3
2022-07-30T18:15:22.886Z,26.3
2022-07-30T18:17:49.515Z,26.2
2022-07-30T18:20:14.635Z,26.1
2022-07-30T18:22:41.250Z,26.1
2022-07-30T18:25:07.876Z,25.9
2022-07-30T18:27:34.494Z,25.8
2022-07-30T18:30:01.126Z,25.7
2022-07-30T18:32:27.761Z,25.5
2022-07-30T18:34:54.378Z,25.4
2022-07-30T18:37:20.987Z,25.2
2022-07-30T18:39:47.623Z,25.1
2022-07-30T18:42:14.240Z,24.9
2022-07-30T18:44:39.370Z,24.8
2022-07-30T18:47:04.498Z,24.6
2022-07-30T18:49:31.132Z,24.5
2022-07-30T18:51:57.739Z,24.3
2022-07-30T18:56:51.007Z,24
2022-07-30T18:59:17.606Z,23.8
2022-07-30T19:01:44.238Z,23.7
2022-07-30T19:04:10.862Z,23.6
2022-07-30T19:06:37.493Z,23.4
2022-07-30T19:09:04.114Z,23.3
2022-07-30T19:11:30.735Z,23.1
2022-07-30T19:13:57.358Z,23
2022-07-30T19:16:23.979Z,22.8
2022-07-30T19:18:50.602Z,22.6
2022-07-30T19:21:15.732Z,22.5
2022-07-30T19:23:42.354Z,22.5
2022-07-30T19:26:08.976Z,22.3
2022-07-30T19:28:35.595Z,22.2
2022-07-30T19:31:02.221Z,22.1
2022-07-30T19:35:55.453Z,21.9
2022-07-30T19:38:22.084Z,21.8
2022-07-30T19:40:48.733Z,21.7
2022-07-30T19:43:15.338Z,21.5
2022-07-30T19:45:41.959Z,21.3
2022-07-30T19:48:08.590Z,21
2022-07-30T19:50:35.193Z,20.9
2022-07-30T19:55:26.965Z,20.8
2022-07-30T19:57:53.588Z,20.7
2022-07-30T20:00:20.206Z,20.7
2022-07-30T20:02:46.832Z,20.6
2022-07-30T20:05:13.455Z,20.5
2022-07-30T20:07:40.069Z,20.4
2022-07-30T20:10:06.697Z,20.2
2022-07-30T20:12:33.343Z,19.9
2022-07-30T20:14:59.992Z,19.8
2022-07-30T20:17:26.568Z,19.6
2022-07-30T20:19:53.224Z,19.5
2022-07-30T20:24:46.462Z,19.4
2022-07-30T20:27:11.586Z,19.3
2022-07-30T20:29:36.716Z,19.3
2022-07-30T20:32:03.321Z,19.3
2022-07-30T20:34:29.936Z,19.3
2022-07-30T20:39:23.183Z,19.2
2022-07-30T20:41:49.813Z,19.2
2022-07-30T20:44:16.434Z,19.1
2022-07-30T20:46:43.079Z,19
2022-07-30T20:49:09.663Z,19
2022-07-30T20:51:36.298Z,18.9
2022-07-30T20:54:02.941Z,18.7
2022-07-30T20:56:29.539Z,18.6
2022-07-30T20:58:56.173Z,18.5
2022-07-30T21:03:47.945Z,18.3
2022-07-30T21:08:39.709Z,18.1
2022-07-30T21:11:04.807Z,18.1
2022-07-30T21:13:29.965Z,18
2022-07-30T21:15:56.549Z,17.9
2022-07-30T21:18:23.193Z,17.9
2022-07-30T21:20:49.845Z,17.8
2022-07-30T21:23:16.459Z,17.7
2022-07-30T21:25:43.045Z,17.7
2022-07-30T21:28:09.674Z,17.7
2022-07-30T21:33:02.917Z,17.6
2022-07-30T21:35:29.541Z,17.5
2022-07-30T21:37:56.167Z,17.5
2022-07-30T21:40:22.791Z,17.4
2022-07-30T21:42:49.401Z,17.3
2022-07-30T21:45:16.039Z,17.2
2022-07-30T21:47:41.165Z,17.1
2022-07-30T21:50:07.790Z,17.1
2022-07-30T21:52:34.426Z,17
2022-07-30T21:55:01.025Z,16.9
2022-07-30T21:57:27.657Z,16.8
2022-07-30T21:59:54.275Z,16.7
2022-07-30T22:02:21.735Z,16.7
2022-07-30T22:07:14.135Z,16.7
2022-07-30T22:09:40.771Z,16.6
2022-07-30T22:12:07.383Z,16.7
2022-07-30T22:14:34.018Z,16.7
2022-07-30T22:17:00.628Z,16.7
2022-07-30T22:19:25.763Z,16.6
2022-07-30T22:21:52.389Z,16.7
2022-07-30T22:24:17.507Z,16.7
2022-07-30T22:26:42.646Z,16.6
2022-07-30T22:29:09.282Z,16.6
2022-07-30T22:31:35.894Z,16.5
2022-07-30T22:36:29.141Z,16.5
2022-07-30T22:38:55.757Z,16.5
2022-07-30T22:41:22.378Z,16.4
2022-07-30T22:43:49.027Z,16.4
2022-07-30T22:46:15.632Z,16.3
2022-07-30T22:51:08.908Z,16.3
2022-07-30T22:53:35.500Z,16.2
2022-07-30T22:58:28.731Z,16.1
2022-07-30T23:00:55.390Z,16.1
2022-07-30T23:05:54.878Z,16
2022-07-30T23:08:12.243Z,15.9
2022-07-30T23:10:37.403Z,15.8
2022-07-30T23:13:04.004Z,15.7
2022-07-30T23:15:30.606Z,15.7
2022-07-30T23:17:57.246Z,15.7
2022-07-30T23:20:23.861Z,15.7
2022-07-30T23:22:50.488Z,15.7
2022-07-30T23:25:17.120Z,15.6
2022-07-30T23:27:43.900Z,15.6
2022-07-30T23:30:10.359Z,15.5
2022-07-30T23:32:36.984Z,15.5
2022-07-30T23:35:03.608Z,15.5
2022-07-30T23:37:28.731Z,15.4
2022-07-30T23:39:55.366Z,15.4
2022-07-30T23:47:13.735Z,15.3
2022-07-30T23:49:40.365Z,15.2
2022-07-30T23:52:06.964Z,15.2
2022-07-30T23:54:33.591Z,15.1
2022-07-30T23:57:00.226Z,15
2022-07-30T23:59:26.848Z,15
